Time;durP1;ratioP1;P1;durP2;ratioP2;P2;SDS_P1;SDS_P2;PMS_P1;PMS_P2;Temp;Humidity;BMP_temperature;BMP_pressure;BME280_temperature;BME280_humidity;BME280_pressure;Samples;Min_cycle;Max_cycle;Signal;HPM_P1;HPM_P2
2021/04/07 00:00:52;;;;;;;1.20;0.55;;;;;;;25.91;27.03;96086.78;5064357;27;20469;-24
2021/04/07 00:03:18;;;;;;;1.52;0.50;;;;;;;25.91;27.07;96096.44;5065547;28;20039;-24
2021/04/07 00:05:44;;;;;;;2.13;0.70;;;;;;;25.90;26.99;96092.94;5058795;28;20330;-26
2021/04/07 00:08:10;;;;;;;0.52;0.50;;;;;;;25.91;27.20;96099.06;5066695;28;20023;-27
2021/04/07 00:10:40;;;;;;;1.88;0.45;;;;;;;25.90;27.06;96090.31;5059958;28;20090;-25
2021/04/07 00:13:06;;;;;;;0.70;0.40;;;;;;;25.90;27.02;96095.56;5066154;28;20031;-24
2021/04/07 00:15:31;;;;;;;5.05;0.77;;;;;;;25.90;27.08;96087.69;5069893;28;20051;-27
2021/04/07 00:17:57;;;;;;;2.22;0.88;;;;;;;25.89;27.20;96093.06;5080186;28;20138;-29
2021/04/07 00:20:24;;;;;;;2.22;0.38;;;;;;;25.90;27.06;96097.38;5043469;28;20029;-23
2021/04/07 00:22:49;;;;;;;1.33;0.50;;;;;;;25.89;27.00;96096.53;5067835;28;20107;-27
2021/04/07 00:25:15;;;;;;;1.10;0.45;;;;;;;25.89;27.22;96106.19;5061837;28;20649;-26
2021/04/07 00:27:43;;;;;;;1.05;0.50;;;;;;;25.89;27.15;96100.94;5063465;28;20020;-26
2021/04/07 00:30:09;;;;;;;1.05;0.60;;;;;;;25.89;27.20;96098.31;5066844;28;20387;-25
2021/04/07 00:32:34;;;;;;;1.23;0.70;;;;;;;25.88;27.15;96102.72;5062255;28;20111;-24
2021/04/07 00:35:00;;;;;;;1.67;0.50;;;;;;;25.89;27.15;96114.91;5039789;28;20107;-22
2021/04/07 00:37:25;;;;;;;1.45;0.45;;;;;;;25.89;27.07;96111.44;5066732;28;20032;-23
2021/04/07 00:39:51;;;;;;;1.85;0.50;;;;;;;25.88;27.11;96117.63;5067240;28;20040;-25
2021/04/07 00:42:16;;;;;;;2.22;0.57;;;;;;;25.87;27.05;96116.78;5061616;28;20028;-22
2021/04/07 00:44:42;;;;;;;1.70;0.43;;;;;;;25.87;27.17;96116.78;5069728;28;20031;-25
2021/04/07 00:47:07;;;;;;;1.48;0.50;;;;;;;25.88;26.93;96128.13;5058896;27;20059;-25
2021/04/07 00:49:33;;;;;;;2.08;0.52;;;;;;;25.88;27.23;96123.72;5067601;28;20031;-25
2021/04/07 00:51:58;;;;;;;1.23;0.40;;;;;;;25.88;27.04;96128.13;5064484;28;20020;-27
2021/04/07 00:54:23;;;;;;;0.90;0.38;;;;;;;25.88;27.05;96136.00;5064093;28;20036;-27
2021/04/07 00:56:49;;;;;;;2.25;0.60;;;;;;;25.87;26.92;96127.28;5066083;28;20421;-25
2021/04/07 00:59:15;;;;;;;0.43;0.30;;;;;;;25.87;27.10;96134.31;5064878;28;20071;-24
2021/04/07 01:01:41;;;;;;;1.63;0.57;;;;;;;25.87;27.06;96131.69;5062195;28;20177;-27
2021/04/07 01:04:06;;;;;;;1.02;0.50;;;;;;;25.86;27.05;96132.63;5067347;28;20032;-28
2021/04/07 01:06:33;;;;;;;2.58;0.60;;;;;;;25.86;26.98;96127.38;5068139;28;20032;-24
2021/04/07 01:08:58;;;;;;;2.38;0.52;;;;;;;25.85;27.13;96137.03;5064949;28;20032;-26
2021/04/07 01:11:24;;;;;;;1.58;0.70;;;;;;;25.83;26.99;96124.00;5065556;28;20059;-26
2021/04/07 01:13:49;;;;;;;1.75;0.45;;;;;;;25.86;27.22;96124.75;5068207;28;20021;-25
2021/04/07 01:16:15;;;;;;;1.58;0.30;;;;;;;25.85;27.03;96125.72;5066143;28;20106;-26
2021/04/07 01:18:40;;;;;;;0.82;0.55;;;;;;;25.83;27.12;96121.38;5061557;28;20498;-25
2021/04/07 01:21:06;;;;;;;1.90;0.47;;;;;;;25.85;27.01;96128.34;5070442;28;20030;-23
2021/04/07 01:23:32;;;;;;;1.30;0.40;;;;;;;25.83;27.08;96125.81;5070269;28;20424;-28
2021/04/07 01:25:57;;;;;;;2.05;0.30;;;;;;;25.84;27.02;96132.72;5054956;28;20036;-27
2021/04/07 01:28:23;;;;;;;1.15;0.55;;;;;;;25.82;27.01;96138.06;5070217;28;20028;-25
2021/04/07 01:30:48;;;;;;;0.98;0.45;;;;;;;25.82;26.95;96135.44;5066517;28;20032;-24
2021/04/07 01:33:21;;;;;;;2.00;0.50;;;;;;;25.82;27.20;96134.63;5068261;28;20563;-24
2021/04/07 01:35:46;;;;;;;1.00;0.40;;;;;;;25.82;27.09;96135.44;5069596;28;20032;-29
2021/04/07 01:38:12;;;;;;;0.60;0.20;;;;;;;25.82;26.68;96140.69;5068276;28;20148;-25
2021/04/07 01:40:37;;;;;;;0.82;0.40;;;;;;;25.82;26.98;96135.44;5068353;28;20034;-25
2021/04/07 01:43:03;;;;;;;0.93;0.40;;;;;;;25.81;27.09;96149.50;5054731;28;20431;-23
2021/04/07 01:45:28;;;;;;;1.00;0.43;;;;;;;25.81;26.98;96152.13;5063572;27;20492;-26
2021/04/07 01:47:54;;;;;;;1.40;0.60;;;;;;;25.81;27.05;96154.75;5052476;28;20097;-25
2021/04/07 01:50:19;;;;;;;0.45;0.30;;;;;;;25.81;27.14;96159.16;5049661;28;20948;-25
2021/04/07 01:52:45;;;;;;;0.80;0.40;;;;;;;25.81;27.00;96154.75;5069211;28;20073;-25
2021/04/07 01:55:11;;;;;;;0.30;0.20;;;;;;;25.81;27.08;96164.41;5066801;28;20055;-26
2021/04/07 01:57:36;;;;;;;2.63;0.40;;;;;;;25.80;27.06;96163.59;5070843;28;20040;-26
2021/04/07 02:00:04;;;;;;;0.55;0.30;;;;;;;25.80;26.99;96163.59;5059770;28;20063;-25
2021/04/07 02:02:30;;;;;;;0.88;0.30;;;;;;;25.75;26.99;96155.16;5059702;28;20630;-23
2021/04/07 02:04:55;;;;;;;2.17;0.38;;;;;;;25.79;27.08;96164.53;5069609;28;20085;-27
2021/04/07 02:07:20;;;;;;;1.10;0.40;;;;;;;25.78;27.15;96165.44;5066341;28;20039;-25
2021/04/07 02:09:46;;;;;;;0.80;0.35;;;;;;;25.78;27.18;96160.19;5069574;28;20025;-25
2021/04/07 02:12:12;;;;;;;1.00;0.45;;;;;;;25.78;27.13;96165.44;5066782;28;20092;-27
2021/04/07 02:14:37;;;;;;;2.10;0.47;;;;;;;25.78;26.94;96162.81;5069142;28;20042;-28
2021/04/07 02:17:03;;;;;;;1.27;0.47;;;;;;;25.78;26.95;96154.13;5065163;27;20040;-23
2021/04/07 02:19:29;;;;;;;1.10;0.25;;;;;;;25.78;26.97;96168.06;5080646;28;20610;-26
2021/04/07 02:22:05;;;;;;;0.57;0.30;;;;;;;25.78;26.97;96168.06;5068540;28;20067;-23
2021/04/07 02:24:31;;;;;;;1.35;0.40;;;;;;;25.77;26.98;96176.88;5067449;28;20035;-25
2021/04/07 02:27:02;;;;;;;0.90;0.50;;;;;;;25.77;26.95;96179.50;5067412;28;20032;-29
2021/04/07 02:29:27;;;;;;;;;;;;;;;25.76;27.08;96177.84;5067897;28;20050;-27
2021/04/07 02:31:53;;;;;;;0.50;0.40;;;;;;;25.77;26.97;96191.78;5063847;28;20571;-24
2021/04/07 02:34:18;;;;;;;0.88;0.40;;;;;;;25.75;27.00;96191.91;5064926;28;20031;-28
2021/04/07 02:36:44;;;;;;;0.63;0.25;;;;;;;25.75;26.88;96199.78;5067283;28;20535;-25
2021/04/07 02:39:09;;;;;;;1.38;0.40;;;;;;;25.75;26.94;96197.16;5065512;28;20028;-22
2021/04/07 02:41:34;;;;;;;0.65;0.22;;;;;;;25.75;26.95;96207.66;5066559;28;20085;-25
2021/04/07 02:44:00;;;;;;;1.80;0.22;;;;;;;25.75;26.92;96201.56;5065335;28;20516;-25
2021/04/07 02:46:25;;;;;;;0.82;0.40;;;;;;;25.74;26.94;96202.50;5066117;28;20051;-27
2021/04/07 02:48:51;;;;;;;1.25;0.30;;;;;;;25.74;27.03;96202.50;5067303;28;20036;-27
2021/04/07 02:51:16;;;;;;;1.05;0.30;;;;;;;25.74;27.10;96213.00;5070358;28;20029;-26
2021/04/07 02:53:42;;;;;;;1.02;0.30;;;;;;;25.73;27.08;96214.75;5070746;28;20523;-26
2021/04/07 02:56:07;;;;;;;0.82;0.28;;;;;;;25.72;27.02;96220.97;5060851;28;20028;-27
2021/04/07 02:58:32;;;;;;;0.70;0.40;;;;;;;25.74;27.05;96219.06;5069301;28;20677;-24
2021/04/07 03:00:58;;;;;;;0.77;0.20;;;;;;;25.73;26.99;96214.75;5065621;28;20036;-27
2021/04/07 03:03:23;;;;;;;0.38;0.28;;;;;;;25.73;26.95;96220.00;5073479;28;20395;-27
2021/04/07 03:05:49;;;;;;;0.55;0.20;;;;;;;25.71;26.80;96221.91;5066463;28;20027;-24
2021/04/07 03:08:14;;;;;;;0.50;0.30;;;;;;;25.72;27.14;96220.09;5063524;28;20047;-27
2021/04/07 03:10:39;;;;;;;0.45;0.25;;;;;;;25.72;26.85;96227.97;5066591;28;20031;-24
2021/04/07 03:13:05;;;;;;;2.80;0.50;;;;;;;25.72;27.01;96228.81;5066475;28;20500;-23
2021/04/07 03:15:30;;;;;;;4.53;0.80;;;;;;;25.70;26.43;96228.06;5068717;27;20048;-25
2021/04/07 03:17:56;;;;;;;3.40;0.52;;;;;;;25.69;26.53;96229.00;5065965;28;20020;-22
2021/04/07 03:20:21;;;;;;;1.40;0.40;;;;;;;25.68;26.68;96237.81;5064936;28;20020;-27
2021/04/07 03:22:46;;;;;;;1.75;0.38;;;;;;;25.67;26.72;96242.22;5067453;28;20035;-22
2021/04/07 03:25:12;;;;;;;0.82;0.38;;;;;;;25.67;26.84;96241.41;5069268;28;20528;-28
2021/04/07 03:27:38;;;;;;;1.33;0.40;;;;;;;25.65;26.77;96240.63;5064946;28;20674;-25
2021/04/07 03:30:04;;;;;;;0.63;0.25;;;;;;;25.68;26.65;96248.31;5062124;28;20496;-25
2021/04/07 03:32:30;;;;;;;1.85;0.60;;;;;;;25.67;26.77;96249.28;5067239;28;20317;-24
2021/04/07 03:34:55;;;;;;;0.63;0.35;;;;;;;25.67;26.67;96257.97;5067151;28;20047;-26
2021/04/07 03:37:21;;;;;;;0.65;0.40;;;;;;;25.67;26.96;96257.13;5068416;28;20439;-28
2021/04/07 03:39:46;;;;;;;1.38;0.30;;;;;;;25.65;26.80;96264.25;5062391;28;20436;-25
2021/04/07 03:42:12;;;;;;;1.48;0.60;;;;;;;25.67;26.90;96270.25;5068914;28;20031;-29
2021/04/07 03:44:37;;;;;;;3.30;0.63;;;;;;;25.67;26.73;96278.13;5065008;28;20033;-27
2021/04/07 03:47:02;;;;;;;0.85;0.35;;;;;;;25.65;26.83;96275.59;5061101;27;20040;-24
2021/04/07 03:49:31;;;;;;;1.02;0.30;;;;;;;25.65;26.80;96275.59;5065593;28;20057;-23
2021/04/07 03:51:56;;;;;;;2.67;0.60;;;;;;;25.65;26.96;96277.38;5062099;28;20056;-25
2021/04/07 03:54:22;;;;;;;1.52;0.35;;;;;;;25.59;26.88;96275.94;5067612;28;20113;-27
2021/04/07 03:56:49;;;;;;;1.33;0.40;;;;;;;25.64;27.02;96280.94;5065932;28;20024;-29
2021/04/07 03:59:15;;;;;;;0.80;0.28;;;;;;;25.65;26.93;96285.25;5069392;28;20060;-25
2021/04/07 04:01:40;;;;;;;1.30;0.40;;;;;;;25.65;26.83;96290.47;5061632;27;20044;-24
2021/04/07 04:04:05;;;;;;;3.53;0.25;;;;;;;25.64;27.00;96294.06;5067977;28;20151;-25
2021/04/07 04:06:31;;;;;;;2.00;0.52;;;;;;;25.63;26.80;96287.13;5063654;28;20496;-25
2021/04/07 04:08:59;;;;;;;0.60;0.30;;;;;;;25.64;26.92;96294.06;5065232;28;20040;-24
2021/04/07 04:11:24;;;;;;;0.80;0.40;;;;;;;25.63;26.72;96298.44;5063216;28;20771;-26
2021/04/07 04:13:50;;;;;;;4.07;0.52;;;;;;;25.62;26.80;96290.69;5062954;28;20016;-26
2021/04/07 04:16:15;;;;;;;1.25;0.40;;;;;;;25.63;26.84;96292.38;5062137;28;20055;-25
2021/04/07 04:18:43;;;;;;;3.45;0.45;;;;;;;25.62;26.92;96302.00;5064154;28;20063;-26
2021/04/07 04:21:09;;;;;;;0.45;0.35;;;;;;;25.62;26.73;96299.38;5069255;28;20071;-23
2021/04/07 04:23:34;;;;;;;0.77;0.40;;;;;;;25.63;26.82;96303.69;5066012;28;20020;-26
2021/04/07 04:25:59;;;;;;;2.00;0.40;;;;;;;25.62;26.71;96312.50;5066295;28;20024;-27
2021/04/07 04:28:25;;;;;;;0.75;0.40;;;;;;;25.62;26.75;96307.25;5069895;28;20031;-27
2021/04/07 04:30:50;;;;;;;1.77;0.40;;;;;;;25.63;26.78;96318.63;5066207;28;20047;-25
2021/04/07 04:33:16;;;;;;;0.95;0.38;;;;;;;25.63;26.61;96318.63;5063481;28;20031;-26
2021/04/07 04:35:41;;;;;;;0.32;0.20;;;;;;;25.62;26.90;96328.25;5062607;28;20047;-25
2021/04/07 04:38:09;;;;;;;1.80;0.57;;;;;;;25.63;26.86;96329.09;5066569;28;20023;-25
2021/04/07 04:40:34;;;;;;;1.05;0.30;;;;;;;25.61;26.71;96333.59;5068514;28;20032;-27
2021/04/07 04:43:00;;;;;;;0.80;0.30;;;;;;;25.62;26.90;96343.16;5064066;28;20438;-24
2021/04/07 04:45:25;;;;;;;1.70;0.20;;;;;;;25.61;26.83;96346.72;5064359;28;20035;-24
2021/04/07 04:47:50;;;;;;;0.20;0.20;;;;;;;25.61;26.94;96349.34;5064550;28;20557;-26
2021/04/07 04:50:16;;;;;;;0.47;0.28;;;;;;;25.60;27.00;96351.13;5067599;28;20526;-27
2021/04/07 04:52:41;;;;;;;0.63;0.20;;;;;;;25.61;26.71;96359.81;5067693;28;20029;-26
2021/04/07 04:55:08;;;;;;;2.72;0.30;;;;;;;25.60;26.87;96368.63;5080164;28;20024;-27
2021/04/07 04:57:33;;;;;;;0.93;0.40;;;;;;;25.61;26.94;96367.69;5067530;28;20115;-25
2021/04/07 04:59:59;;;;;;;0.45;0.20;;;;;;;25.61;26.89;96378.19;5067015;28;20456;-24
2021/04/07 05:02:24;;;;;;;0.95;0.35;;;;;;;25.61;26.76;96386.06;5067588;28;20044;-26
2021/04/07 05:04:50;;;;;;;3.15;0.50;;;;;;;25.60;26.71;96387.88;5063914;28;20074;-27
2021/04/07 05:07:15;;;;;;;1.02;0.25;;;;;;;25.59;26.90;96393.19;5066444;28;20395;-24
2021/04/07 05:09:41;;;;;;;0.70;0.32;;;;;;;25.59;26.99;96393.19;5065915;28;20028;-25
2021/04/07 05:12:06;;;;;;;1.40;0.47;;;;;;;25.59;26.70;96396.66;5067822;28;20150;-24
2021/04/07 05:14:32;;;;;;;2.08;0.52;;;;;;;25.59;26.75;96398.44;5063974;28;20607;-26
2021/04/07 05:16:57;;;;;;;1.88;0.50;;;;;;;25.59;26.92;96401.06;5058776;28;20044;-28
2021/04/07 05:19:22;;;;;;;1.13;0.20;;;;;;;25.59;26.90;96395.81;5066551;28;20032;-24
2021/04/07 05:21:48;;;;;;;0.77;0.35;;;;;;;25.59;26.90;96401.06;5063757;28;20031;-24
2021/04/07 05:24:13;;;;;;;0.55;0.17;;;;;;;25.57;26.98;96399.38;5060486;28;20032;-27
2021/04/07 05:26:39;;;;;;;1.00;0.30;;;;;;;25.59;27.00;96412.38;5065543;28;20059;-25
2021/04/07 05:29:04;;;;;;;0.45;0.35;;;;;;;25.57;26.96;96409.03;5058442;28;20073;-24
2021/04/07 05:31:30;;;;;;;0.40;0.20;;;;;;;25.57;26.88;96419.53;5063667;27;20041;-25
2021/04/07 05:33:58;;;;;;;0.68;0.30;;;;;;;25.57;26.87;96424.78;5067540;28;20017;-29
2021/04/07 05:36:23;;;;;;;0.93;0.25;;;;;;;25.56;26.74;96433.59;5067296;28;20028;-24
2021/04/07 05:38:50;;;;;;;0.82;0.30;;;;;;;25.55;26.95;96432.69;5060710;28;20035;-25
2021/04/07 05:41:16;;;;;;;0.45;0.20;;;;;;;25.55;26.87;96437.13;5067300;28;20047;-25
2021/04/07 05:43:42;;;;;;;2.67;0.40;;;;;;;25.55;26.91;96443.19;5050075;28;20036;-25
2021/04/07 05:46:09;;;;;;;1.20;0.43;;;;;;;25.54;26.88;96454.63;5066993;28;20381;-25
2021/04/07 05:48:34;;;;;;;4.30;0.30;;;;;;;25.55;26.99;96450.22;5071864;28;20639;-24
2021/04/07 05:51:00;;;;;;;0.47;0.20;;;;;;;25.54;26.79;96462.50;5070782;28;20029;-25
2021/04/07 05:53:25;;;;;;;0.60;0.30;;;;;;;25.53;26.73;96462.56;5068853;28;20031;-28
2021/04/07 05:55:52;;;;;;;0.35;0.22;;;;;;;25.54;26.93;96473.00;5068969;28;20040;-30
2021/04/07 05:58:18;;;;;;;0.82;0.30;;;;;;;25.54;26.83;96488.72;5068599;28;20040;-24
2021/04/07 06:00:43;;;;;;;0.40;0.30;;;;;;;25.54;26.81;96493.97;5065355;28;20062;-25
2021/04/07 06:03:09;;;;;;;1.13;0.50;;;;;;;25.54;26.77;96499.22;5070061;28;20059;-23
2021/04/07 06:05:35;;;;;;;0.57;0.30;;;;;;;25.52;26.88;96501.06;5067279;28;20258;-24
2021/04/07 06:08:01;;;;;;;1.05;0.30;;;;;;;25.52;26.98;96501.06;5064804;28;20094;-26
2021/04/07 06:10:27;;;;;;;1.27;0.32;;;;;;;25.53;26.80;96508.03;5069892;28;20130;-23
2021/04/07 06:12:53;;;;;;;5.25;0.40;;;;;;;25.53;26.65;96508.03;5072595;28;20023;-29
2021/04/07 06:15:19;;;;;;;1.25;0.35;;;;;;;25.53;26.99;96518.53;5064340;27;20119;-26
2021/04/07 06:18:02;;;;;;;1.00;0.43;;;;;;;25.52;26.74;96522.06;5066939;28;20043;-24
2021/04/07 06:20:34;;;;;;;1.02;0.57;;;;;;;25.50;26.79;96518.69;5065890;28;20492;-25
2021/04/07 06:23:00;;;;;;;0.80;0.35;;;;;;;25.51;26.89;96525.63;5066535;28;20032;-27
2021/04/07 06:25:25;;;;;;;2.85;0.60;;;;;;;25.50;26.91;96529.19;5069097;28;20071;-25
2021/04/07 06:27:52;;;;;;;5.60;0.65;;;;;;;25.49;26.56;96527.50;5066183;28;20062;-26
2021/04/07 06:30:18;;;;;;;0.90;0.52;;;;;;;25.50;26.87;96530.94;5064911;28;20031;-28
2021/04/07 06:32:44;;;;;;;2.08;0.70;;;;;;;25.51;26.79;96546.63;5066397;28;20322;-27
2021/04/07 06:35:09;;;;;;;3.85;0.52;;;;;;;25.51;26.58;96545.78;5065734;28;20476;-27
2021/04/07 06:37:35;;;;;;;4.60;0.70;;;;;;;25.52;26.75;96547.47;5036609;28;20032;-26
2021/04/07 06:40:00;;;;;;;15.35;1.70;;;;;;;25.51;26.40;96540.53;5066469;28;20681;-24
2021/04/07 06:42:26;;;;;;;2.80;1.00;;;;;;;25.50;26.15;96544.94;5066142;28;20575;-25
2021/04/07 06:44:52;;;;;;;2.30;0.80;;;;;;;25.49;26.63;96543.25;5062233;28;20110;-27
2021/04/07 06:47:17;;;;;;;4.78;0.60;;;;;;;25.50;26.45;96554.56;5065927;27;20043;-25
2021/04/07 06:49:43;;;;;;;7.22;1.63;;;;;;;25.49;25.96;96547.63;5032209;28;20027;-26
2021/04/07 06:52:16;;;;;;;4.40;1.33;;;;;;;25.44;25.33;96561.03;5056044;28;20047;-25
2021/04/07 06:54:41;;;;;;;3.83;1.40;;;;;;;25.41;24.65;96561.19;5065726;28;20391;-22
2021/04/07 06:57:07;;;;;;;4.97;1.35;;;;;;;25.36;24.48;96564.03;5047644;28;20028;-25
2021/04/07 06:59:35;;;;;;;5.93;1.38;;;;;;;25.30;24.12;96570.50;5063737;28;20032;-25
2021/04/07 07:02:00;;;;;;;3.67;1.38;;;;;;;25.26;24.08;96574.22;5062969;27;20102;-26
2021/04/07 07:04:25;;;;;;;8.15;1.40;;;;;;;25.20;23.88;96578.94;5062725;28;20446;-26
2021/04/07 07:06:54;;;;;;;3.22;1.40;;;;;;;25.14;23.34;96580.13;5063414;28;20039;-27
2021/04/07 07:09:20;;;;;;;2.97;1.30;;;;;;;25.04;23.54;96575.38;5062715;28;20024;-24
2021/04/07 07:11:57;;;;;;;4.93;1.33;;;;;;;25.02;23.46;96585.06;5062674;28;20043;-24
2021/04/07 07:14:23;;;;;;;4.05;1.55;;;;;;;24.97;23.41;96592.34;5047289;28;20060;-26
2021/04/07 07:16:50;;;;;;;4.68;2.10;;;;;;;24.92;23.22;96592.59;5062616;28;20059;-25
2021/04/07 07:19:28;;;;;;;4.10;1.20;;;;;;;24.90;23.78;96601.47;5062018;28;20205;-23
2021/04/07 07:21:57;;;;;;;3.42;1.30;;;;;;;24.89;24.14;96597.13;5061249;28;20059;-24
2021/04/07 07:24:35;;;;;;;6.35;1.35;;;;;;;24.91;24.56;96598.75;5063986;28;20028;-24
2021/04/07 07:27:02;;;;;;;3.03;0.85;;;;;;;24.94;24.67;96600.38;5062937;28;20642;-22
2021/04/07 07:29:32;;;;;;;2.47;0.73;;;;;;;24.96;25.07;96614.25;5062714;28;20721;-25
2021/04/07 07:32:08;;;;;;;1.90;0.80;;;;;;;25.00;24.98;96612.31;5062451;28;20040;-25
2021/04/07 07:34:34;;;;;;;2.33;0.90;;;;;;;25.02;25.30;96607.84;5065734;28;20045;-27
2021/04/07 07:37:00;;;;;;;3.85;0.73;;;;;;;25.05;25.38;96619.00;5059277;28;20028;-25
2021/04/07 07:39:30;;;;;;;1.85;0.88;;;;;;;25.08;25.42;96619.75;5062053;28;20029;-24
2021/04/07 07:42:01;;;;;;;2.95;1.00;;;;;;;25.12;25.58;96629.16;5063216;28;20137;-23
2021/04/07 07:44:28;;;;;;;4.60;1.05;;;;;;;25.13;25.46;96626.47;5063129;28;20028;-26
2021/04/07 07:46:58;;;;;;;6.80;0.93;;;;;;;25.16;25.65;96641.19;5062796;28;20138;-22
2021/04/07 07:49:24;;;;;;;2.45;1.10;;;;;;;25.18;25.42;96634.09;5063640;28;20133;-24
2021/04/07 07:51:50;;;;;;;6.53;0.70;;;;;;;25.19;25.49;96641.03;5062408;28;21140;-26
2021/04/07 07:54:16;;;;;;;1.80;0.73;;;;;;;25.21;25.47;96638.31;5061095;28;20039;-24
2021/04/07 07:56:41;;;;;;;2.85;0.90;;;;;;;25.22;25.73;96646.13;5063746;28;20123;-25
2021/04/07 07:59:07;;;;;;;1.98;0.60;;;;;;;25.21;25.76;96649.69;5065894;28;20086;-20
2021/04/07 08:01:46;;;;;;;3.55;0.65;;;;;;;25.23;25.95;96653.03;5057896;28;20044;-27
2021/04/07 08:04:11;;;;;;;3.33;0.70;;;;;;;25.24;25.96;96648.66;5060418;28;20091;-24
2021/04/07 08:06:37;;;;;;;3.17;0.98;;;;;;;25.27;25.96;96658.97;5063090;28;20020;-22
2021/04/07 08:09:05;;;;;;;1.50;0.80;;;;;;;25.27;25.80;96653.72;5058904;28;20454;-24
2021/04/07 08:11:31;;;;;;;1.42;0.70;;;;;;;25.29;26.13;96662.38;5061001;28;20032;-23
2021/04/07 08:13:57;;;;;;;5.07;0.80;;;;;;;25.28;26.22;96655.44;5065886;28;20025;-26
2021/04/07 08:16:23;;;;;;;0.75;0.60;;;;;;;25.30;25.88;96653.56;5064293;28;20040;-26
2021/04/07 08:18:49;;;;;;;16.00;1.27;;;;;;;25.33;26.05;96660.44;5062890;28;20054;-24
2021/04/07 08:21:19;;;;;;;18.80;1.55;;;;;;;25.34;25.53;96662.13;5062279;28;20032;-28
2021/04/07 08:23:45;;;;;;;8.43;1.30;;;;;;;25.34;25.70;96654.25;5067738;28;20149;-24
2021/04/07 08:26:10;;;;;;;8.05;1.33;;;;;;;25.27;23.61;96654.59;5050269;28;21071;-24
2021/04/07 08:28:39;;;;;;;6.47;1.63;;;;;;;25.04;20.98;96668.91;5054944;28;20388;-24
2021/04/07 08:31:04;;;;;;;3.15;1.50;;;;;;;24.72;20.18;96684.47;5057690;28;20032;-27
2021/04/07 08:33:30;;;;;;;6.18;1.20;;;;;;;24.44;20.50;96673.59;5041075;28;20047;-28
2021/04/07 08:35:55;;;;;;;3.83;1.10;;;;;;;24.29;20.93;96687.44;5040736;28;20435;-25
2021/04/07 08:38:31;;;;;;;2.67;1.15;;;;;;;24.17;21.35;96684.50;5062565;28;20047;-25
2021/04/07 08:41:13;;;;;;;4.97;1.15;;;;;;;24.12;21.50;96687.34;5048027;28;20035;-26
2021/04/07 08:43:38;;;;;;;4.40;1.33;;;;;;;24.10;21.67;96689.16;5057842;28;20052;-27
2021/04/07 08:46:11;;;;;;;3.60;0.98;;;;;;;24.10;21.87;96690.97;5063120;28;20046;-24
2021/04/07 08:48:37;;;;;;;4.90;1.10;;;;;;;24.13;21.89;96698.66;5075427;28;20113;-26
2021/04/07 08:51:10;;;;;;;5.25;0.95;;;;;;;24.17;22.00;96694.13;5067463;28;20639;-25
2021/04/07 08:53:43;;;;;;;5.63;0.95;;;;;;;24.20;22.35;96702.69;5065655;28;20670;-26
2021/04/07 08:56:11;;;;;;;5.07;1.02;;;;;;;24.25;22.29;96702.47;5067901;28;20035;-24
2021/04/07 08:58:51;;;;;;;3.35;1.05;;;;;;;24.30;22.43;96705.72;5068690;28;20029;-29
2021/04/07 09:01:24;;;;;;;1.35;0.80;;;;;;;24.35;22.55;96719.44;5065132;27;20555;-24
2021/04/07 09:03:50;;;;;;;3.45;1.00;;;;;;;24.39;22.78;96720.13;5057923;28;20024;-24
2021/04/07 09:06:15;;;;;;;6.07;1.20;;;;;;;24.43;22.77;96716.44;5056698;28;20158;-26
2021/04/07 09:08:51;;;;;;;2.17;1.10;;;;;;;24.47;22.87;96712.75;5058738;28;20032;-28
2021/04/07 09:11:31;;;;;;;4.85;1.10;;;;;;;24.52;23.03;96723.00;5038875;28;20099;-26
2021/04/07 09:14:00;;;;;;;4.68;1.67;;;;;;;24.56;22.96;96716.66;5057651;28;20028;-24
2021/04/07 09:16:30;;;;;;;6.50;1.25;;;;;;;24.60;23.14;96717.38;5057612;28;20044;-26
2021/04/07 09:18:55;;;;;;;4.88;1.30;;;;;;;24.63;23.17;96714.59;5059833;28;20594;-27
2021/04/07 09:21:21;;;;;;;3.53;1.10;;;;;;;24.68;23.30;96715.22;5061816;28;20036;-23
2021/04/07 09:23:50;;;;;;;6.70;1.50;;;;;;;24.71;23.54;96736.03;5062488;28;20072;-23
2021/04/07 09:26:17;;;;;;;4.13;1.08;;;;;;;24.73;23.49;96718.47;5066064;28;20073;-27
2021/04/07 09:28:47;;;;;;;7.40;1.50;;;;;;;24.76;23.59;96713.09;5075935;28;20036;-27
2021/04/07 09:31:22;;;;;;;5.00;1.50;;;;;;;24.73;23.77;96707.97;5054724;27;20036;-24
2021/04/07 09:33:51;;;;;;;6.53;1.40;;;;;;;24.80;23.60;96717.22;5047522;28;20087;-28
2021/04/07 09:36:18;;;;;;;5.00;1.50;;;;;;;24.85;23.77;96721.41;5048794;28;20079;-24
2021/04/07 09:38:51;;;;;;;5.60;1.63;;;;;;;24.86;23.83;96710.03;5055703;28;20052;-25
2021/04/07 09:41:25;;;;;;;10.25;1.55;;;;;;;24.89;23.98;96708.09;5063084;28;20758;-27
2021/04/07 09:43:51;;;;;;;6.90;1.70;;;;;;;24.91;24.17;96705.38;5054423;28;20063;-26
2021/04/07 09:46:16;;;;;;;13.10;1.70;;;;;;;24.94;24.28;96707.84;5060456;28;20032;-28
2021/04/07 09:48:51;;;;;;;11.65;1.65;;;;;;;24.96;24.34;96711.25;5062570;28;21301;-26
2021/04/07 09:51:29;;;;;;;9.20;1.80;;;;;;;25.00;24.43;96710.16;5066232;28;20604;-25
2021/04/07 09:54:06;;;;;;;18.60;1.52;;;;;;;25.02;24.52;96718.78;5065750;28;20036;-26
2021/04/07 09:56:31;;;;;;;8.27;1.15;;;;;;;25.05;24.32;96716.00;5073421;28;20024;-23
2021/04/07 09:58:56;;;;;;;6.38;1.65;;;;;;;25.08;24.39;96722.00;5070631;28;20122;-26
2021/04/07 10:01:22;;;;;;;9.52;1.33;;;;;;;25.11;24.60;96724.47;5068808;28;20359;-25
2021/04/07 10:03:54;;;;;;;3.08;1.15;;;;;;;25.13;24.38;96738.38;5067653;28;20035;-25
2021/04/07 10:06:24;;;;;;;7.70;1.30;;;;;;;25.12;24.70;96728.78;5067835;28;20603;-25
2021/04/07 10:08:59;;;;;;;5.38;1.33;;;;;;;25.17;24.49;96737.31;5072970;28;20462;-26
2021/04/07 10:11:25;;;;;;;4.13;1.40;;;;;;;25.19;24.54;96735.44;5069896;28;20438;-25
2021/04/07 10:13:51;;;;;;;8.15;1.60;;;;;;;25.18;24.83;96739.81;5069753;28;20244;-24
2021/04/07 10:16:16;;;;;;;4.60;1.00;;;;;;;25.11;24.80;96722.72;5067333;28;20033;-28
2021/04/07 10:18:45;;;;;;;6.05;1.38;;;;;;;25.22;24.71;96740.53;5070097;28;20063;-25
2021/04/07 10:21:17;;;;;;;3.47;1.30;;;;;;;25.24;24.89;96738.66;5068112;28;20055;-26
2021/04/07 10:23:43;;;;;;;;;;;;;;;25.25;24.91;96734.28;5072769;28;20038;-25
2021/04/07 10:26:08;;;;;;;3.13;0.90;;;;;;;25.26;24.94;96739.44;5063364;28;21219;-25
2021/04/07 10:28:35;;;;;;;5.38;1.15;;;;;;;25.27;24.94;96741.13;5053982;28;20043;-28
2021/04/07 10:31:00;;;;;;;6.70;0.95;;;;;;;25.27;25.10;96735.88;5067260;28;20031;-24
2021/04/07 10:33:27;;;;;;;2.55;1.20;;;;;;;25.29;25.10;96751.56;5066502;28;21381;-26
2021/04/07 10:36:01;;;;;;;4.53;1.42;;;;;;;25.30;24.95;96746.22;5072002;28;20040;-25
2021/04/07 10:38:31;;;;;;;1.92;1.10;;;;;;;25.31;24.91;96745.28;5061678;28;20097;-26
2021/04/07 10:40:58;;;;;;;2.42;0.95;;;;;;;25.33;25.07;96746.97;5069364;28;20032;-26
2021/04/07 10:43:25;;;;;;;2.13;0.95;;;;;;;25.36;24.97;96736.34;5068784;28;20012;-25
2021/04/07 10:45:58;;;;;;;4.00;1.00;;;;;;;25.37;25.13;96735.41;5068822;28;20277;-26
2021/04/07 10:48:24;;;;;;;3.50;1.05;;;;;;;25.38;25.15;96737.09;5070072;28;20107;-26
2021/04/07 10:50:49;;;;;;;2.53;0.90;;;;;;;25.41;25.25;96734.31;5071268;28;20028;-24
2021/04/07 10:53:15;;;;;;;3.35;0.90;;;;;;;25.41;25.25;96736.94;5071002;28;20036;-26
2021/04/07 10:55:40;;;;;;;5.80;1.05;;;;;;;25.44;25.37;96736.78;5068723;28;20503;-25
2021/04/07 10:58:05;;;;;;;3.15;0.88;;;;;;;25.46;24.98;96737.53;5063704;28;20497;-26
2021/04/07 11:00:35;;;;;;;4.90;0.93;;;;;;;25.47;25.21;96736.59;5065702;28;20064;-23
2021/04/07 11:03:00;;;;;;;1.65;0.98;;;;;;;25.50;25.20;96746.09;5067433;28;20020;-26
2021/04/07 11:05:40;;;;;;;3.33;0.90;;;;;;;25.50;25.16;96735.59;5071057;28;20032;-24
2021/04/07 11:08:06;;;;;;;1.23;0.68;;;;;;;25.52;25.09;96737.22;5063686;28;20017;-27
2021/04/07 11:10:38;;;;;;;1.90;0.75;;;;;;;25.53;25.29;96744.16;5068322;28;20625;-27
2021/04/07 11:13:05;;;;;;;2.17;0.68;;;;;;;25.54;25.31;96740.63;5069632;28;20028;-27
2021/04/07 11:15:30;;;;;;;1.40;0.90;;;;;;;25.55;25.29;96742.31;5069068;27;20051;-26
2021/04/07 11:17:55;;;;;;;4.43;0.95;;;;;;;25.57;25.22;96729.13;5067729;28;20549;-29
2021/04/07 11:20:21;;;;;;;3.63;0.70;;;;;;;25.57;25.06;96734.38;5071008;28;20035;-27
2021/04/07 11:22:47;;;;;;;1.60;0.80;;;;;;;25.60;25.37;96733.38;5069118;28;20458;-29
2021/04/07 11:25:13;;;;;;;2.55;0.90;;;;;;;25.61;25.36;96735.91;5067334;28;20036;-29
2021/04/07 11:27:38;;;;;;;1.50;0.80;;;;;;;25.62;25.40;96726.28;5070605;28;20028;-26
2021/04/07 11:30:05;;;;;;;3.22;0.70;;;;;;;25.63;25.35;96741.09;5070746;28;20109;-25
2021/04/07 11:32:33;;;;;;;1.92;1.00;;;;;;;25.64;25.29;96741.00;5082192;28;20036;-25